Puntzi Mountain, Canada
Current Conditions -  °F | °C
As of 8:00 AM on Saturday 25 Oct 2014 (Local Time) from CYWL Reporting Station
Light Snow Light Snow  
Wind Chill: 26°   Ceiling: 3000
Heat Index: 32°   Visibility: 1.5mi
Dew Point: 32°   Wind: 6mph
Humidity: 100%   Direction: 40°NE
Pressure: 29.62"   Gusts: NA
Location:  52.12°N, 124.13°W
Report Text: CYWL 251500Z 04005KT 1 1/2SM -SN OVC030 00/M00 A2962 RMK SC8 SLP061
Loading
Personal Weather Stations






























Interactive Weather Map
Tropical Storm Tracking
New forecast layout! Learn more

10-Day Weather Forecast

Advertisements
Track Severe Weather on mobile